Airfield :
LOGIN :

Register | Disclaimer

   EN    FR    IT 

 










Legend :    VFR   Marginal VFR   IFR   Intensive IFR   Very Intensive IFR
Visi :
Ceiling :
>= 8 km
>= 3000ft
5 to 8 km
1000 to 3000 ft
1500m to 5 km
500 to 1000 ft
800 to 1500m
200 to 500 ft
< 800m
< 200 ft
Symbols :   Thunderstorms  Fog  Heavy snow  Heavy precipitations  Wind > 20 kt
SIGMETs :     Misc.  Thunderstorms  Icing  Turbulence  Mountain Waves  Volcanic Ashes






- Airport Elevation : 2625 ft
- IATA code : LEU


LESU - Aeròdrom dels Pirineus-Alt Urgell

CURRENT METAR :
  • 131700Z 21009KT 190V260 9999 SCT050CB SCT070TCU 29/10 Q1016

EXPIRED METARs :
  • 131630Z 20009KT 150V220 9999 SCT050CB SCT070TCU 29/08 Q1016
  • 131600Z 19009KT 150V220 9999 SCT050TCU BKN080 28/09 Q1016
  • 131530Z 18009KT 140V220 9999 SCT050TCU 29/10 Q1016
  • 131500Z 18009KT 150V220 9999 SCT050TCU 28/10 Q1016

TAF TAF LESU
Valid from the 13 at 15:00 until the 14 at 15:00 UTC


131400Z 1315/1415 20010KT 9999 SCT050 TX30/1415Z TN15/1405Z
PROB40
TEMPO 1315/1316 3000 TSRA FEW030CB
BECMG 1318/1320 VRB03KT
BECMG 1410/1412 20008KT



MET'MAP, your aeronautical weather chart ! - Copyright ORBIFLY December 2007 - Disclaimer

ORBIFLY MET'MAP TEAM :

Programming & Development : Alexandra Zaïnal
Concept & original design : Baudouin d'Aumeries
Assistance for programming : Marc-Olivier Méhu
Technical & hardware support : Manuel Goepfert

Contact : metmap@orbifly.com




SOURCES & CREDITS :

   NOAA